Time;durP1;ratioP1;P1;durP2;ratioP2;P2;SDS_P1;SDS_P2;PMS_P1;PMS_P2;Temp;Humidity;BMP_temperature;BMP_pressure;BME280_temperature;BME280_humidity;BME280_pressure;Samples;Min_cycle;Max_cycle;Signal;HPM_P1;HPM_P2
2024/03/28 00:01:51;;;;;;;6.18;1.85;;;8.20;99.90;;;;;;5051732;28;20060;-68
2024/03/28 00:04:17;;;;;;;8.50;2.00;;;8.20;99.90;;;;;;5052916;28;20536;-69
2024/03/28 00:06:43;;;;;;;4.85;1.63;;;8.20;99.90;;;;;;5052769;28;20083;-68
2024/03/28 00:09:09;;;;;;;5.47;1.60;;;8.20;99.90;;;;;;5052646;28;20037;-68
2024/03/28 00:11:35;;;;;;;5.20;1.77;;;8.30;99.90;;;;;;5052966;28;20087;-68
2024/03/28 00:14:00;;;;;;;5.90;1.77;;;8.30;99.90;;;;;;5052663;28;20049;-67
2024/03/28 00:16:27;;;;;;;7.53;1.63;;;8.30;99.90;;;;;;5052198;28;20049;-67
2024/03/28 00:18:53;;;;;;;3.72;1.15;;;8.30;99.90;;;;;;5035989;28;20068;-68
2024/03/28 00:21:18;;;;;;;6.72;1.70;;;8.40;99.90;;;;;;5052530;28;20064;-67
2024/03/28 00:23:45;;;;;;;5.22;1.35;;;8.40;99.90;;;;;;5052749;28;20045;-67
2024/03/28 00:26:11;;;;;;;6.95;1.52;;;8.40;99.90;;;;;;5052466;28;20047;-69
2024/03/28 00:28:37;;;;;;;8.50;1.70;;;8.50;99.90;;;;;;5052723;28;20037;-68
2024/03/28 00:31:04;;;;;;;5.00;1.42;;;8.50;99.90;;;;;;5052490;28;20475;-67
2024/03/28 00:33:30;;;;;;;6.25;1.38;;;8.50;99.90;;;;;;5052279;28;20063;-68
2024/03/28 00:35:56;;;;;;;5.68;1.63;;;8.50;99.90;;;;;;5052615;28;20143;-69
2024/03/28 00:38:21;;;;;;;7.47;2.15;;;8.50;99.90;;;;;;5035822;28;20056;-67
2024/03/28 00:40:47;;;;;;;6.60;1.63;;;8.60;99.90;;;;;;5052174;28;20041;-67
2024/03/28 00:43:13;;;;;;;8.68;1.67;;;8.50;99.90;;;;;;5052382;28;20037;-67
2024/03/28 00:45:39;;;;;;;5.82;1.52;;;8.60;99.90;;;;;;5052145;28;20482;-69
2024/03/28 00:48:05;;;;;;;5.00;1.73;;;8.50;99.90;;;;;;5051381;28;20033;-67
2024/03/28 00:50:30;;;;;;;7.82;1.77;;;8.50;99.90;;;;;;5051191;28;20041;-67
2024/03/28 00:52:56;;;;;;;7.70;1.40;;;8.50;99.90;;;;;;5051308;28;20133;-67
2024/03/28 00:55:22;;;;;;;6.35;1.60;;;8.50;99.90;;;;;;5052194;28;20056;-68
2024/03/28 00:57:48;;;;;;;8.05;1.52;;;8.50;99.90;;;;;;5051539;28;20045;-68
2024/03/28 01:00:14;;;;;;;6.28;1.50;;;8.50;99.90;;;;;;5035166;28;20144;-68
2024/03/28 01:02:40;;;;;;;6.82;1.60;;;8.50;99.90;;;;;;5035687;28;20041;-68
2024/03/28 01:05:06;;;;;;;5.90;1.50;;;8.50;99.90;;;;;;5051935;28;20037;-67
2024/03/28 01:07:31;;;;;;;4.88;1.33;;;8.50;99.90;;;;;;5035432;28;20174;-67
2024/03/28 01:09:57;;;;;;;6.47;1.50;;;8.60;99.90;;;;;;5052112;28;20045;-62
2024/03/28 01:12:23;;;;;;;6.35;2.00;;;8.50;99.90;;;;;;5035396;28;20059;-61
2024/03/28 01:14:49;;;;;;;5.28;1.50;;;8.50;99.90;;;;;;5054954;28;20076;-62
2024/03/28 01:17:15;;;;;;;4.35;1.20;;;8.50;99.90;;;;;;5055825;28;20056;-62
2024/03/28 01:19:40;;;;;;;6.90;1.40;;;8.50;99.90;;;;;;5056110;28;20493;-62
2024/03/28 01:22:06;;;;;;;7.10;1.63;;;8.40;99.90;;;;;;5055773;28;20044;-62
2024/03/28 01:24:32;;;;;;;6.25;1.42;;;8.40;99.90;;;;;;5055741;28;20048;-62
2024/03/28 01:26:58;;;;;;;8.30;1.48;;;8.40;99.90;;;;;;5055603;28;20102;-62
2024/03/28 01:29:24;;;;;;;4.72;1.20;;;8.40;99.90;;;;;;5038970;28;20493;-62
2024/03/28 01:31:49;;;;;;;5.55;1.52;;;8.30;99.90;;;;;;5055652;28;20040;-62
2024/03/28 01:34:15;;;;;;;6.40;1.83;;;8.30;99.90;;;;;;5055378;28;20129;-62
2024/03/28 01:36:41;;;;;;;5.90;1.20;;;8.40;99.90;;;;;;5055577;28;20382;-62
2024/03/28 01:39:08;;;;;;;7.05;1.83;;;8.30;99.90;;;;;;5055469;28;20098;-62
2024/03/28 01:41:33;;;;;;;6.75;1.85;;;8.40;99.90;;;;;;5055622;28;20052;-62
2024/03/28 01:43:59;;;;;;;10.77;1.38;;;8.30;99.90;;;;;;5055377;28;20037;-61
2024/03/28 01:46:25;;;;;;;4.57;1.50;;;8.30;99.90;;;;;;5055361;28;20071;-62
2024/03/28 01:48:51;;;;;;;7.82;1.60;;;8.30;99.90;;;;;;5055539;28;20037;-62
2024/03/28 01:51:18;;;;;;;4.53;1.40;;;8.30;99.90;;;;;;5055264;28;20065;-62
2024/03/28 01:53:44;;;;;;;6.15;1.10;;;8.20;99.90;;;;;;5055415;28;20120;-62
2024/03/28 01:56:10;;;;;;;4.35;0.80;;;8.10;99.90;;;;;;5038392;28;20509;-62
2024/03/28 01:58:35;;;;;;;9.90;1.23;;;8.10;99.90;;;;;;5055567;28;20138;-61
2024/03/28 02:01:01;;;;;;;6.38;1.10;;;8.10;99.90;;;;;;5054901;28;20041;-62
2024/03/28 02:03:27;;;;;;;4.70;2.00;;;8.10;99.90;;;;;;5038214;28;20045;-62
2024/03/28 02:05:53;;;;;;;4.18;1.02;;;8.10;99.90;;;;;;5055029;28;20095;-62
2024/03/28 02:08:18;;;;;;;3.92;1.20;;;8.00;99.90;;;;;;5055285;28;20080;-62
2024/03/28 02:10:44;;;;;;;3.28;1.02;;;8.00;99.90;;;;;;5055035;28;20393;-61
2024/03/28 02:13:11;;;;;;;3.60;0.88;;;7.90;99.90;;;;;;5038565;28;20083;-61
2024/03/28 02:15:37;;;;;;;2.83;0.85;;;7.90;99.90;;;;;;5054813;28;20041;-62
2024/03/28 02:18:03;;;;;;;3.85;0.77;;;7.80;99.90;;;;;;5054582;28;20139;-63
2024/03/28 02:20:29;;;;;;;2.67;0.77;;;7.60;99.90;;;;;;5054860;28;20099;-62
2024/03/28 02:22:55;;;;;;;2.45;0.70;;;7.50;99.90;;;;;;5054657;28;20087;-62
2024/03/28 02:25:20;;;;;;;5.18;0.70;;;7.40;99.90;;;;;;5053830;28;20064;-61
2024/03/28 02:27:47;;;;;;;1.83;0.50;;;7.30;99.90;;;;;;5054806;28;20037;-62
2024/03/28 02:30:13;;;;;;;1.88;0.40;;;7.30;99.90;;;;;;5054910;28;20037;-62
2024/03/28 02:32:38;;;;;;;2.35;0.50;;;7.20;99.90;;;;;;5054521;28;20037;-62
2024/03/28 02:35:04;;;;;;;2.80;0.85;;;7.30;99.90;;;;;;5054705;28;20470;-62
2024/03/28 02:37:30;;;;;;;2.85;0.50;;;7.30;99.90;;;;;;5054169;28;20048;-62
2024/03/28 02:39:56;;;;;;;2.15;0.52;;;7.30;99.90;;;;;;5054810;28;20041;-62
2024/03/28 02:42:21;;;;;;;3.47;0.60;;;7.30;99.90;;;;;;5054222;28;20067;-62
2024/03/28 02:44:47;;;;;;;2.38;0.65;;;7.30;99.90;;;;;;5054063;28;20052;-62
2024/03/28 02:47:13;;;;;;;1.90;0.60;;;7.40;99.90;;;;;;5053992;28;20045;-62
2024/03/28 02:49:39;;;;;;;1.20;0.50;;;7.40;99.90;;;;;;5054282;28;20040;-62
2024/03/28 02:52:05;;;;;;;2.67;0.60;;;7.30;99.90;;;;;;5054188;28;20040;-62
2024/03/28 02:54:31;;;;;;;7.68;0.85;;;7.40;99.90;;;;;;5054198;28;20478;-62
2024/03/28 02:56:56;;;;;;;2.83;0.70;;;7.40;99.90;;;;;;5037562;28;20080;-62
2024/03/28 02:59:22;;;;;;;4.78;0.70;;;7.40;99.90;;;;;;5054019;28;20048;-62
2024/03/28 03:01:48;;;;;;;4.82;0.90;;;7.30;99.90;;;;;;5054005;28;20049;-63
2024/03/28 03:04:14;;;;;;;4.70;0.82;;;7.30;99.90;;;;;;5053713;28;20044;-62
2024/03/28 03:06:39;;;;;;;5.72;0.90;;;7.30;99.90;;;;;;5053974;28;20045;-62
2024/03/28 03:09:06;;;;;;;5.10;0.88;;;7.20;99.90;;;;;;5053910;28;20037;-62
2024/03/28 03:11:31;;;;;;;2.75;0.82;;;7.20;99.90;;;;;;5053796;28;20045;-62
2024/03/28 03:13:57;;;;;;;4.10;0.70;;;7.20;99.90;;;;;;5053786;28;20379;-62
2024/03/28 03:16:23;;;;;;;3.90;0.70;;;7.20;99.90;;;;;;5053341;28;20489;-62
2024/03/28 03:18:49;;;;;;;5.25;1.13;;;7.20;99.90;;;;;;5053560;28;20052;-62
2024/03/28 03:21:16;;;;;;;3.10;0.80;;;7.20;99.90;;;;;;5053248;28;20037;-62
2024/03/28 03:23:48;;;;;;;3.75;0.75;;;7.30;99.90;;;;;;5053263;28;20040;-62
2024/03/28 03:26:20;;;;;;;8.38;1.50;;;7.30;99.90;;;;;;5053570;28;20036;-62
2024/03/28 03:36:59;;;;;;;4.32;0.70;;;7.20;99.90;;;;;;5052033;28;20040;-62
2024/03/28 03:39:25;;;;;;;5.45;0.90;;;7.10;99.90;;;;;;5053082;28;20559;-62
2024/03/28 03:41:51;;;;;;;6.18;1.20;;;7.10;99.90;;;;;;5053031;28;20051;-62
2024/03/28 03:44:16;;;;;;;4.15;0.70;;;7.00;99.90;;;;;;5052682;28;20069;-62
2024/03/28 03:46:42;;;;;;;7.65;0.70;;;7.00;99.90;;;;;;5052862;28;20040;-62
2024/03/28 03:49:08;;;;;;;4.97;0.73;;;6.90;99.90;;;;;;5036048;28;20111;-62
2024/03/28 03:51:35;;;;;;;4.43;0.90;;;6.90;99.90;;;;;;5052838;28;20470;-62
2024/03/28 03:54:01;;;;;;;6.93;0.65;;;6.80;99.90;;;;;;5052636;28;20448;-62
2024/03/28 03:56:27;;;;;;;5.32;0.70;;;6.70;99.90;;;;;;5052695;28;20048;-62
2024/03/28 03:58:52;;;;;;;6.57;0.80;;;6.70;99.90;;;;;;5053272;28;20051;-62
2024/03/28 04:01:18;;;;;;;6.95;1.13;;;6.60;99.90;;;;;;5035850;28;20044;-62
2024/03/28 04:03:44;;;;;;;4.97;0.85;;;6.70;99.90;;;;;;5036056;28;20041;-62
2024/03/28 04:06:10;;;;;;;4.22;0.55;;;6.70;99.90;;;;;;5052694;28;20131;-62
2024/03/28 04:08:36;;;;;;;5.30;0.75;;;6.60;99.90;;;;;;5052485;28;20091;-62
2024/03/28 04:11:02;;;;;;;6.45;0.80;;;6.60;99.90;;;;;;5052790;28;20132;-62
2024/03/28 04:13:27;;;;;;;6.80;1.00;;;6.60;99.90;;;;;;5052432;28;20037;-62
2024/03/28 04:15:53;;;;;;;5.07;0.60;;;6.50;99.90;;;;;;5052149;28;20041;-62
2024/03/28 04:18:19;;;;;;;4.40;0.80;;;6.50;99.90;;;;;;5052979;28;20033;-62
2024/03/28 04:20:45;;;;;;;5.50;0.80;;;6.40;99.90;;;;;;5052653;28;20132;-62
2024/03/28 04:23:10;;;;;;;4.03;0.57;;;6.40;99.90;;;;;;5052747;28;20090;-62
2024/03/28 04:25:36;;;;;;;5.15;0.80;;;6.30;99.90;;;;;;5051946;28;20127;-62
2024/03/28 04:28:02;;;;;;;4.13;0.68;;;6.30;99.90;;;;;;5052601;28;20041;-61
2024/03/28 04:30:28;;;;;;;3.95;0.70;;;6.20;99.90;;;;;;5035447;28;20044;-61
2024/03/28 04:32:53;;;;;;;7.07;1.67;;;6.20;99.90;;;;;;5052477;28;20155;-61
2024/03/28 04:35:19;;;;;;;3.88;0.80;;;6.10;99.90;;;;;;5052373;28;20037;-61
2024/03/28 04:37:45;;;;;;;7.82;0.80;;;6.10;99.90;;;;;;5052472;28;20435;-61
2024/03/28 04:40:11;;;;;;;6.03;1.20;;;6.10;99.90;;;;;;5052405;28;20064;-61
2024/03/28 04:42:37;;;;;;;1.45;0.50;;;6.10;99.90;;;;;;5052182;28;20052;-61
2024/03/28 04:45:02;;;;;;;3.90;0.88;;;6.00;99.90;;;;;;5068665;28;20383;-61
2024/03/28 04:47:28;;;;;;;7.35;0.90;;;6.00;99.90;;;;;;5051945;28;20033;-61
2024/03/28 04:49:54;;;;;;;2.40;0.60;;;5.90;99.90;;;;;;5056333;28;20087;-61
2024/03/28 04:52:20;;;;;;;3.97;0.70;;;5.90;99.90;;;;;;5039630;28;20099;-61
2024/03/28 04:54:45;;;;;;;4.32;1.35;;;5.80;99.90;;;;;;5056362;28;20091;-61
2024/03/28 04:57:11;;;;;;;6.60;0.50;;;5.80;99.90;;;;;;5056128;28;20040;-64
2024/03/28 04:59:37;;;;;;;3.95;0.70;;;5.80;99.90;;;;;;5039380;28;20052;-64
2024/03/28 05:02:03;;;;;;;3.15;0.50;;;5.80;99.90;;;;;;5055897;28;20498;-61
2024/03/28 05:04:29;;;;;;;5.70;0.80;;;5.70;99.90;;;;;;5039182;28;20069;-61
2024/03/28 05:06:54;;;;;;;3.13;0.47;;;5.70;99.90;;;;;;5055553;28;20059;-61
2024/03/28 05:09:20;;;;;;;4.82;0.70;;;5.70;99.90;;;;;;5055945;28;20029;-62
2024/03/28 05:11:46;;;;;;;4.50;0.50;;;5.70;99.90;;;;;;5055729;28;20071;-61
2024/03/28 05:14:12;;;;;;;8.80;0.73;;;5.70;99.90;;;;;;5055851;28;20429;-61
2024/03/28 05:16:38;;;;;;;4.80;0.90;;;5.60;99.90;;;;;;5055280;28;20052;-61
2024/03/28 05:19:04;;;;;;;5.03;0.80;;;5.60;99.90;;;;;;5055648;28;20076;-61
2024/03/28 05:21:29;;;;;;;2.55;0.63;;;5.60;99.90;;;;;;5055598;28;20040;-61
2024/03/28 05:23:55;;;;;;;7.55;0.90;;;5.60;99.90;;;;;;5055379;28;20051;-61
2024/03/28 05:26:21;;;;;;;6.97;1.00;;;5.50;99.90;;;;;;5055712;28;20071;-68
2024/03/28 05:28:47;;;;;;;8.40;1.00;;;5.50;99.90;;;;;;5055696;28;20041;-67
2024/03/28 05:31:13;;;;;;;3.00;0.60;;;5.50;99.90;;;;;;5055717;28;20432;-68
2024/03/28 05:33:39;;;;;;;3.60;0.90;;;5.50;99.90;;;;;;5055208;28;20039;-68
2024/03/28 05:36:04;;;;;;;3.45;0.70;;;5.50;99.90;;;;;;5038843;28;20041;-68
2024/03/28 05:38:30;;;;;;;6.38;0.98;;;5.50;99.90;;;;;;5038990;28;20488;-67
2024/03/28 05:40:56;;;;;;;7.72;1.15;;;5.50;99.90;;;;;;5055233;28;20037;-67
2024/03/28 05:43:22;;;;;;;7.20;0.93;;;5.50;99.90;;;;;;5055527;28;20530;-68
2024/03/28 05:45:47;;;;;;;6.97;0.70;;;5.40;99.90;;;;;;5054974;28;20037;-67
2024/03/28 05:48:13;;;;;;;8.00;1.23;;;5.50;99.90;;;;;;5055366;28;20051;-68
2024/03/28 05:50:39;;;;;;;3.95;0.55;;;5.50;99.90;;;;;;5055109;28;20037;-68
2024/03/28 05:53:05;;;;;;;6.95;0.95;;;5.40;99.90;;;;;;5055619;28;20490;-68
2024/03/28 05:55:32;;;;;;;6.55;1.17;;;5.40;99.90;;;;;;5055166;28;20052;-68
2024/03/28 05:57:58;;;;;;;9.20;1.00;;;5.40;99.90;;;;;;5054781;28;20071;-68
2024/03/28 06:00:24;;;;;;;8.15;1.10;;;5.40;99.90;;;;;;5037132;28;20063;-68
2024/03/28 06:02:50;;;;;;;7.22;1.33;;;5.40;99.90;;;;;;5054680;28;20041;-68
2024/03/28 06:05:15;;;;;;;6.03;0.80;;;5.50;99.90;;;;;;5037781;28;20117;-68
2024/03/28 06:07:41;;;;;;;9.00;0.93;;;5.60;99.90;;;;;;5054629;28;20087;-68
2024/03/28 06:10:07;;;;;;;6.18;0.80;;;5.70;99.90;;;;;;5054984;28;20215;-67
2024/03/28 06:12:33;;;;;;;5.03;0.98;;;5.70;99.90;;;;;;5054577;28;20036;-68
2024/03/28 06:14:58;;;;;;;9.27;1.02;;;5.70;99.90;;;;;;5054753;28;20044;-68
2024/03/28 06:17:24;;;;;;;4.90;0.95;;;5.70;99.90;;;;;;5054562;28;20140;-68
2024/03/28 06:19:50;;;;;;;6.13;1.00;;;5.70;99.90;;;;;;5054759;28;20045;-68
2024/03/28 06:22:16;;;;;;;7.05;1.10;;;5.80;99.90;;;;;;5054946;28;20064;-68
2024/03/28 06:24:42;;;;;;;5.22;1.02;;;5.80;99.90;;;;;;5054356;28;20029;-67
2024/03/28 06:27:07;;;;;;;7.22;1.00;;;5.80;99.90;;;;;;5054310;28;20486;-68
2024/03/28 06:29:39;;;;;;;6.35;1.10;;;5.80;99.90;;;;;;5054889;28;20041;-67
2024/03/28 06:32:13;;;;;;;7.40;1.00;;;5.70;99.90;;;;;;5054649;28;20440;-67
2024/03/28 06:34:39;;;;;;;4.00;1.08;;;5.70;99.90;;;;;;5054453;28;20441;-67
2024/03/28 06:37:05;;;;;;;6.55;0.80;;;5.80;99.90;;;;;;5054312;28;20064;-67
2024/03/28 06:39:31;;;;;;;7.65;1.35;;;5.80;99.90;;;;;;5054293;28;20044;-68
2024/03/28 06:41:57;;;;;;;8.30;1.42;;;5.80;99.90;;;;;;5054364;28;20095;-68
2024/03/28 06:44:22;;;;;;;3.97;1.00;;;5.80;99.90;;;;;;5037780;28;20116;-68
2024/03/28 06:46:48;;;;;;;6.45;1.00;;;5.90;99.90;;;;;;5054185;28;20044;-68
2024/03/28 06:49:14;;;;;;;7.53;0.93;;;5.90;99.90;;;;;;5054202;28;20033;-67
2024/03/28 06:51:40;;;;;;;7.00;1.00;;;5.90;99.90;;;;;;5037386;28;20037;-67
2024/03/28 06:54:05;;;;;;;3.72;0.43;;;5.90;99.90;;;;;;5054072;28;20037;-68
2024/03/28 06:56:31;;;;;;;6.10;0.98;;;5.90;99.90;;;;;;5053971;28;20079;-61
2024/03/28 06:58:57;;;;;;;3.75;0.73;;;5.90;99.90;;;;;;5053805;28;20083;-62
2024/03/28 07:01:23;;;;;;;3.97;0.70;;;5.90;99.90;;;;;;5054014;28;20053;-61
2024/03/28 07:03:49;;;;;;;4.63;0.82;;;6.00;99.90;;;;;;5054111;28;20048;-61
2024/03/28 07:06:15;;;;;;;5.22;0.90;;;6.00;99.90;;;;;;5053608;28;20099;-61
2024/03/28 07:08:41;;;;;;;3.28;0.77;;;6.00;99.90;;;;;;5053868;28;20115;-61
2024/03/28 07:11:08;;;;;;;3.20;0.80;;;6.00;99.90;;;;;;5070027;28;20539;-62
2024/03/28 07:13:34;;;;;;;4.05;1.05;;;6.10;99.90;;;;;;5037003;28;20048;-63
2024/03/28 07:16:00;;;;;;;4.43;0.70;;;6.20;99.90;;;;;;5053152;28;20037;-61
2024/03/28 07:18:26;;;;;;;3.42;0.80;;;6.30;99.90;;;;;;5053550;28;20116;-61
2024/03/28 07:20:51;;;;;;;5.80;0.75;;;6.40;99.90;;;;;;5053824;28;20467;-61
2024/03/28 07:23:17;;;;;;;2.83;0.73;;;6.40;99.90;;;;;;5053827;28;20052;-61
2024/03/28 07:25:43;;;;;;;4.15;0.60;;;6.50;99.90;;;;;;5053066;28;20044;-61
2024/03/28 07:28:09;;;;;;;3.95;0.82;;;6.50;99.90;;;;;;5053691;28;20036;-61
2024/03/28 07:30:34;;;;;;;3.30;0.70;;;6.40;99.90;;;;;;5053284;28;20072;-61
2024/03/28 07:33:00;;;;;;;2.28;0.60;;;6.40;99.90;;;;;;5036902;28;20041;-61
2024/03/28 07:35:26;;;;;;;5.70;0.95;;;6.40;99.90;;;;;;5053275;28;20052;-61
2024/03/28 07:37:52;;;;;;;3.40;0.65;;;6.40;99.90;;;;;;5053451;28;20040;-66
2024/03/28 07:40:18;;;;;;;3.25;0.60;;;6.40;99.90;;;;;;5036260;28;20110;-61
2024/03/28 07:42:45;;;;;;;4.30;0.90;;;6.30;99.90;;;;;;5036259;28;20064;-62
2024/03/28 07:45:11;;;;;;;4.13;0.90;;;6.40;99.90;;;;;;5053405;28;20044;-61
2024/03/28 07:47:37;;;;;;;6.35;1.27;;;6.50;99.90;;;;;;5034923;28;20041;-65
2024/03/28 07:50:03;;;;;;;4.63;1.00;;;6.40;99.90;;;;;;5051803;28;20033;-62
2024/03/28 07:52:29;;;;;;;3.00;0.63;;;6.40;99.90;;;;;;5052400;28;20355;-60
2024/03/28 07:54:54;;;;;;;3.08;0.70;;;6.40;99.90;;;;;;5052646;28;20076;-66
2024/03/28 07:57:20;;;;;;;3.60;0.75;;;6.40;99.90;;;;;;5052400;28;20445;-66
2024/03/28 07:59:46;;;;;;;3.80;0.77;;;6.50;99.90;;;;;;5052468;28;20045;-66
2024/03/28 08:02:12;;;;;;;5.85;0.75;;;6.40;99.90;;;;;;5051834;28;20126;-67
2024/03/28 08:04:37;;;;;;;2.95;0.75;;;6.30;99.90;;;;;;5050891;28;20048;-67
2024/03/28 08:07:03;;;;;;;2.85;0.90;;;6.30;99.90;;;;;;5050997;28;20036;-66
2024/03/28 08:09:29;;;;;;;2.45;0.50;;;6.20;99.90;;;;;;5068542;28;20112;-67
2024/03/28 08:11:55;;;;;;;3.00;0.70;;;6.30;99.90;;;;;;5035927;28;20068;-67
2024/03/28 08:14:21;;;;;;;2.50;0.70;;;6.40;99.90;;;;;;5052427;28;20045;-67
2024/03/28 08:16:46;;;;;;;6.10;0.90;;;6.50;99.90;;;;;;5052285;28;20265;-67
2024/03/28 08:19:13;;;;;;;2.30;0.52;;;6.70;99.90;;;;;;5052697;28;20045;-62
2024/03/28 08:21:39;;;;;;;3.05;0.70;;;6.80;99.90;;;;;;5052343;28;20041;-62
2024/03/28 08:24:04;;;;;;;2.83;0.65;;;7.00;99.90;;;;;;5051872;28;20064;-62
2024/03/28 08:26:31;;;;;;;1.80;0.43;;;7.00;99.90;;;;;;5052487;28;20462;-62
2024/03/28 08:28:57;;;;;;;3.70;0.40;;;7.00;99.90;;;;;;5052751;28;20200;-62
2024/03/28 08:31:23;;;;;;;3.72;0.40;;;7.00;99.90;;;;;;5052518;28;20083;-62
2024/03/28 08:33:49;;;;;;;1.98;0.47;;;6.90;99.90;;;;;;5052647;28;20045;-62
2024/03/28 08:36:15;;;;;;;3.05;0.73;;;6.90;99.90;;;;;;5051908;28;20044;-62
2024/03/28 08:38:40;;;;;;;3.58;0.50;;;6.90;99.90;;;;;;5052136;28;20047;-61
2024/03/28 08:41:06;;;;;;;3.42;0.70;;;7.00;99.90;;;;;;5052275;28;20466;-61
2024/03/28 08:43:33;;;;;;;2.80;0.90;;;7.10;99.90;;;;;;5052529;28;20040;-61
2024/03/28 08:45:59;;;;;;;5.53;0.98;;;7.20;99.90;;;;;;5052055;28;20559;-61
2024/03/28 08:48:25;;;;;;;4.63;0.98;;;7.40;99.90;;;;;;5035316;28;20065;-61
2024/03/28 08:50:51;;;;;;;4.35;0.85;;;7.40;99.90;;;;;;5052443;28;20106;-61
2024/03/28 08:53:17;;;;;;;6.43;1.00;;;7.50;99.90;;;;;;5052183;28;20481;-61
2024/03/28 08:55:43;;;;;;;7.35;1.30;;;7.60;99.90;;;;;;5051911;28;20522;-61
2024/03/28 08:58:09;;;;;;;6.35;1.30;;;7.70;99.90;;;;;;5051925;28;20041;-61
2024/03/28 09:00:34;;;;;;;7.13;1.02;;;7.70;99.90;;;;;;5052276;28;20409;-62
2024/03/28 09:03:00;;;;;;;6.80;1.30;;;7.70;99.90;;;;;;5052413;28;20098;-61
2024/03/28 09:05:26;;;;;;;5.75;1.10;;;7.80;99.90;;;;;;5052114;28;20037;-66
2024/03/28 09:07:53;;;;;;;4.85;1.10;;;7.80;99.90;;;;;;5052333;28;20091;-66
2024/03/28 09:10:19;;;;;;;9.25;1.45;;;7.90;99.90;;;;;;5052337;28;20458;-67
2024/03/28 09:12:47;;;;;;;8.75;1.65;;;7.90;99.90;;;;;;5051883;28;20063;-66
2024/03/28 09:15:13;;;;;;;7.55;1.73;;;8.00;99.90;;;;;;5051857;28;20124;-66
2024/03/28 09:17:39;;;;;;;11.80;1.50;;;8.10;99.90;;;;;;5051510;28;20076;-66
2024/03/28 09:20:05;;;;;;;7.93;1.48;;;8.20;99.90;;;;;;5051799;28;20045;-62
2024/03/28 09:22:33;;;;;;;10.27;1.92;;;8.30;99.90;;;;;;5035577;28;20378;-62
2024/03/28 09:24:59;;;;;;;10.07;1.23;;;8.30;99.90;;;;;;5052195;28;20049;-62
2024/03/28 09:27:27;;;;;;;7.55;1.55;;;8.40;99.90;;;;;;5035115;28;20037;-62
2024/03/28 09:29:54;;;;;;;7.20;1.75;;;8.50;99.90;;;;;;5035187;28;20048;-61
2024/03/28 09:32:20;;;;;;;10.95;1.98;;;8.50;99.90;;;;;;5051992;28;20052;-63
2024/03/28 09:34:46;;;;;;;8.90;1.70;;;8.50;99.90;;;;;;5053499;28;20041;-62
2024/03/28 09:37:11;;;;;;;9.35;1.58;;;8.40;99.90;;;;;;5038910;28;20060;-62
2024/03/28 09:39:37;;;;;;;9.50;1.50;;;8.40;99.90;;;;;;5055460;28;20415;-61
2024/03/28 09:42:06;;;;;;;6.82;1.42;;;8.40;99.90;;;;;;5038914;28;20099;-61
2024/03/28 09:44:33;;;;;;;11.60;1.65;;;8.50;99.90;;;;;;5055302;28;20563;-61
2024/03/28 09:46:59;;;;;;;13.68;1.63;;;8.60;99.90;;;;;;5055190;28;20079;-61
2024/03/28 09:49:25;;;;;;;9.18;1.83;;;8.70;99.90;;;;;;5038831;28;20041;-62
2024/03/28 09:51:52;;;;;;;6.82;1.85;;;8.80;99.90;;;;;;5055255;28;20151;-61
2024/03/28 09:54:17;;;;;;;6.65;1.50;;;9.00;99.90;;;;;;5055107;28;20053;-61
2024/03/28 09:56:43;;;;;;;9.55;1.60;;;9.00;99.90;;;;;;5055263;28;20103;-62
2024/03/28 09:59:09;;;;;;;9.52;1.40;;;9.10;99.90;;;;;;5055394;28;20140;-66
2024/03/28 10:01:36;;;;;;;9.73;1.55;;;9.10;99.90;;;;;;5055378;28;20048;-67
2024/03/28 10:04:02;;;;;;;9.38;1.50;;;9.00;99.90;;;;;;5055047;28;20045;-67
2024/03/28 10:06:29;;;;;;;10.10;1.73;;;8.90;99.90;;;;;;5038345;28;20033;-68
2024/03/28 10:08:55;;;;;;;8.98;1.70;;;8.90;99.90;;;;;;5055177;28;20065;-67
2024/03/28 10:11:21;;;;;;;7.72;1.35;;;8.90;99.90;;;;;;5055174;28;20433;-66
2024/03/28 10:13:47;;;;;;;6.80;2.03;;;9.00;99.90;;;;;;5054850;28;20059;-61
2024/03/28 10:16:15;;;;;;;9.98;1.70;;;9.10;99.90;;;;;;5054635;28;20049;-61
2024/03/28 10:18:42;;;;;;;7.65;1.45;;;9.10;99.90;;;;;;5055023;28;20338;-61
2024/03/28 10:21:11;;;;;;;13.57;1.65;;;9.20;99.90;;;;;;5054670;28;20041;-66
2024/03/28 10:23:37;;;;;;;9.05;1.67;;;9.20;99.90;;;;;;5054343;28;20076;-62
2024/03/28 10:26:04;;;;;;;8.13;1.50;;;9.30;99.90;;;;;;5054231;28;20041;-67
2024/03/28 10:28:32;;;;;;;7.32;1.25;;;9.30;99.90;;;;;;5054642;28;20060;-67
2024/03/28 10:30:57;;;;;;;6.53;1.23;;;9.40;99.90;;;;;;5037983;28;20041;-69
2024/03/28 10:33:24;;;;;;;7.47;1.48;;;9.40;99.90;;;;;;5054436;28;20490;-66
2024/03/28 10:35:49;;;;;;;10.50;1.70;;;9.50;99.90;;;;;;5054701;28;20041;-62
2024/03/28 10:38:15;;;;;;;9.15;1.40;;;9.50;99.90;;;;;;5037727;28;20079;-60
2024/03/28 10:40:41;;;;;;;6.63;1.38;;;9.70;99.90;;;;;;5054342;28;20045;-61
2024/03/28 10:43:09;;;;;;;10.25;1.40;;;9.70;99.90;;;;;;5054698;28;20053;-62
2024/03/28 10:45:37;;;;;;;12.45;1.80;;;9.80;99.90;;;;;;5053706;28;20049;-62
2024/03/28 10:48:04;;;;;;;8.32;1.70;;;9.70;99.90;;;;;;5037285;28;20051;-68
2024/03/28 10:50:30;;;;;;;8.15;1.77;;;9.70;99.90;;;;;;5054261;28;20087;-67
2024/03/28 10:52:56;;;;;;;9.18;2.08;;;9.80;99.90;;;;;;5054369;28;20040;-67
2024/03/28 10:55:22;;;;;;;7.53;1.42;;;9.70;99.90;;;;;;5037341;28;20045;-65
2024/03/28 10:57:48;;;;;;;11.32;1.77;;;9.50;99.90;;;;;;5053984;28;20048;-66
2024/03/28 11:00:14;;;;;;;11.15;2.25;;;9.30;99.90;;;;;;5037178;28;20041;-61
2024/03/28 11:02:40;;;;;;;8.80;1.50;;;9.30;99.90;;;;;;5053826;28;20051;-67
2024/03/28 11:05:06;;;;;;;9.30;1.70;;;9.40;99.90;;;;;;5053762;28;20124;-62
2024/03/28 11:07:32;;;;;;;8.32;1.67;;;9.40;99.90;;;;;;5054070;28;20499;-65
2024/03/28 11:09:58;;;;;;;14.02;1.70;;;9.50;99.90;;;;;;5053765;28;20040;-61
2024/03/28 11:12:25;;;;;;;7.30;1.58;;;9.40;99.90;;;;;;5037286;28;20072;-68
2024/03/28 11:14:51;;;;;;;9.68;1.70;;;9.30;99.90;;;;;;5053793;28;20037;-67
2024/03/28 11:17:16;;;;;;;10.13;1.83;;;9.30;99.90;;;;;;5036357;28;20064;-61
2024/03/28 11:19:45;;;;;;;9.05;1.88;;;9.30;99.90;;;;;;5053683;28;20061;-61
2024/03/28 11:22:11;;;;;;;8.07;1.73;;;9.20;99.90;;;;;;5053416;28;20063;-61
2024/03/28 11:24:37;;;;;;;17.52;1.67;;;9.20;99.90;;;;;;5053172;28;20475;-65
2024/03/28 11:27:03;;;;;;;6.78;1.80;;;9.00;99.90;;;;;;5053388;28;20091;-66
2024/03/28 11:29:30;;;;;;;7.78;1.58;;;8.80;99.90;;;;;;5053861;28;20044;-61
2024/03/28 11:31:57;;;;;;;6.03;1.42;;;8.60;99.90;;;;;;5036935;28;20135;-60
2024/03/28 11:34:22;;;;;;;5.65;1.20;;;8.50;99.90;;;;;;5053500;28;20060;-61
2024/03/28 11:36:48;;;;;;;5.70;1.33;;;8.40;99.90;;;;;;5053077;28;20048;-67
2024/03/28 11:39:14;;;;;;;6.60;1.60;;;8.50;99.90;;;;;;5053848;28;20055;-65
2024/03/28 11:41:40;;;;;;;7.63;1.10;;;8.40;99.90;;;;;;5053471;28;20063;-60
2024/03/28 11:44:06;;;;;;;7.03;1.30;;;8.40;99.90;;;;;;5053240;28;20043;-68
2024/03/28 11:46:31;;;;;;;7.43;1.65;;;8.40;99.90;;;;;;5053164;28;20380;-65
2024/03/28 11:48:59;;;;;;;8.07;1.52;;;8.30;99.90;;;;;;5036434;28;20044;-62
2024/03/28 11:51:25;;;;;;;5.65;1.13;;;8.30;99.90;;;;;;5052932;28;20039;-64
2024/03/28 11:53:50;;;;;;;8.07;1.48;;;8.20;99.90;;;;;;5052779;28;20478;-67
2024/03/28 11:56:23;;;;;;;5.78;1.23;;;8.10;99.90;;;;;;5053003;28;20037;-67
2024/03/28 11:58:48;;;;;;;8.13;1.50;;;8.00;99.90;;;;;;5052374;28;20474;-62
2024/03/28 12:01:15;;;;;;;8.57;1.30;;;7.90;99.90;;;;;;5052694;28;20116;-68
2024/03/28 12:03:40;;;;;;;10.15;1.75;;;7.90;99.90;;;;;;5052687;28;20055;-67
2024/03/28 12:06:07;;;;;;;7.90;1.73;;;7.80;99.90;;;;;;5052463;28;20475;-67
2024/03/28 12:08:33;;;;;;;6.82;1.90;;;7.60;99.90;;;;;;5052598;28;20059;-62
2024/03/28 12:10:59;;;;;;;9.10;1.60;;;7.50;99.90;;;;;;5052817;28;20048;-62
2024/03/28 12:13:25;;;;;;;9.85;2.00;;;7.50;99.90;;;;;;5052368;28;20033;-63
2024/03/28 12:15:50;;;;;;;10.57;2.00;;;7.50;99.90;;;;;;5052020;28;20045;-63
2024/03/28 12:18:16;;;;;;;9.57;2.80;;;7.40;99.90;;;;;;5052848;28;20052;-66
2024/03/28 12:20:42;;;;;;;10.52;2.28;;;7.50;99.90;;;;;;5052833;28;20048;-67
2024/03/28 12:23:08;;;;;;;10.20;2.00;;;7.50;99.90;;;;;;5052512;28;20041;-62
2024/03/28 12:25:35;;;;;;;11.25;2.20;;;7.50;99.90;;;;;;5052477;28;20060;-68
2024/03/28 12:28:01;;;;;;;8.57;1.88;;;7.50;99.90;;;;;;5052643;28;20063;-62
2024/03/28 12:30:29;;;;;;;7.80;1.90;;;7.60;99.90;;;;;;5052328;28;20037;-63
2024/03/28 12:32:55;;;;;;;13.40;2.28;;;7.70;99.90;;;;;;5052243;28;20045;-63
2024/03/28 12:35:21;;;;;;;10.00;2.50;;;7.80;99.90;;;;;;5052405;28;20044;-63
2024/03/28 12:37:47;;;;;;;13.23;2.53;;;7.80;99.90;;;;;;5052251;28;20048;-62
2024/03/28 12:40:18;;;;;;;9.15;2.22;;;7.90;99.90;;;;;;5052381;28;20446;-69
2024/03/28 12:42:44;;;;;;;8.27;1.65;;;7.90;99.90;;;;;;5031910;28;20482;-69
2024/03/28 12:45:10;;;;;;;15.00;2.97;;;8.00;99.90;;;;;;5032163;28;20053;-68
2024/03/28 12:47:35;;;;;;;13.88;2.65;;;8.10;99.90;;;;;;5031878;28;20064;-67
2024/03/28 12:50:01;;;;;;;13.95;2.83;;;8.10;99.90;;;;;;5032232;28;20088;-67
2024/03/28 12:52:27;;;;;;;16.73;3.50;;;8.20;99.90;;;;;;5032404;28;20038;-68
2024/03/28 12:54:53;;;;;;;22.45;3.60;;;8.30;99.90;;;;;;5032153;28;20498;-67
2024/03/28 12:57:20;;;;;;;19.52;3.50;;;8.40;99.90;;;;;;5032404;28;20041;-62